sensor_id;sensor_type;location;lat;lon;timestamp;P1;durP1;ratioP1;P2;durP2;ratioP2
30000;SDS011;16845;48.670;9.000;2023-04-01T00:00:37;11.32;;;1.85;;
30000;SDS011;16845;48.670;9.000;2023-04-01T00:03:05;4.68;;;1.40;;
30000;SDS011;16845;48.670;9.000;2023-04-01T00:05:33;4.30;;;1.67;;
30000;SDS011;16845;48.670;9.000;2023-04-01T00:08:02;7.65;;;1.30;;
30000;SDS011;16845;48.670;9.000;2023-04-01T00:10:30;5.05;;;1.00;;
30000;SDS011;16845;48.670;9.000;2023-04-01T00:13:00;7.30;;;1.35;;
30000;SDS011;16845;48.670;9.000;2023-04-01T00:15:28;6.72;;;1.10;;
30000;SDS011;16845;48.670;9.000;2023-04-01T00:17:56;4.63;;;1.27;;
30000;SDS011;16845;48.670;9.000;2023-04-01T00:20:25;8.68;;;1.92;;
30000;SDS011;16845;48.670;9.000;2023-04-01T00:22:53;8.85;;;1.35;;
30000;SDS011;16845;48.670;9.000;2023-04-01T00:25:22;11.20;;;1.58;;
30000;SDS011;16845;48.670;9.000;2023-04-01T00:27:51;5.53;;;1.40;;
30000;SDS011;16845;48.670;9.000;2023-04-01T00:30:19;5.22;;;1.30;;
30000;SDS011;16845;48.670;9.000;2023-04-01T00:32:47;2.80;;;0.90;;
30000;SDS011;16845;48.670;9.000;2023-04-01T00:35:18;5.10;;;2.55;;
30000;SDS011;16845;48.670;9.000;2023-04-01T00:37:47;2.88;;;1.42;;
30000;SDS011;16845;48.670;9.000;2023-04-01T00:40:22;4.22;;;1.65;;
30000;SDS011;16845;48.670;9.000;2023-04-01T00:42:54;5.70;;;1.60;;
30000;SDS011;16845;48.670;9.000;2023-04-01T00:45:33;3.00;;;1.17;;
30000;SDS011;16845;48.670;9.000;2023-04-01T00:48:04;5.20;;;1.98;;
30000;SDS011;16845;48.670;9.000;2023-04-01T00:50:36;1.83;;;1.15;;
30000;SDS011;16845;48.670;9.000;2023-04-01T00:53:06;6.63;;;1.83;;
30000;SDS011;16845;48.670;9.000;2023-04-01T00:55:37;6.65;;;1.48;;
30000;SDS011;16845;48.670;9.000;2023-04-01T00:58:08;4.95;;;1.17;;
30000;SDS011;16845;48.670;9.000;2023-04-01T01:00:42;4.93;;;1.38;;
30000;SDS011;16845;48.670;9.000;2023-04-01T01:03:10;1.80;;;1.02;;
30000;SDS011;16845;48.670;9.000;2023-04-01T01:05:45;5.25;;;1.50;;
30000;SDS011;16845;48.670;9.000;2023-04-01T01:08:28;5.60;;;1.33;;
30000;SDS011;16845;48.670;9.000;2023-04-01T01:11:08;9.32;;;1.67;;
30000;SDS011;16845;48.670;9.000;2023-04-01T01:13:40;3.88;;;1.08;;
30000;SDS011;16845;48.670;9.000;2023-04-01T01:16:16;7.60;;;1.52;;
30000;SDS011;16845;48.670;9.000;2023-04-01T01:18:49;3.38;;;1.25;;
30000;SDS011;16845;48.670;9.000;2023-04-01T01:21:29;4.07;;;1.08;;
30000;SDS011;16845;48.670;9.000;2023-04-01T01:27:06;2.58;;;1.10;;
30000;SDS011;16845;48.670;9.000;2023-04-01T01:29:46;4.13;;;1.10;;
30000;SDS011;16845;48.670;9.000;2023-04-01T01:32:49;2.53;;;1.45;;
30000;SDS011;16845;48.670;9.000;2023-04-01T01:35:28;4.40;;;1.10;;
30000;SDS011;16845;48.670;9.000;2023-04-01T01:38:01;4.15;;;1.05;;
30000;SDS011;16845;48.670;9.000;2023-04-01T01:40:31;7.97;;;1.55;;
30000;SDS011;16845;48.670;9.000;2023-04-01T01:43:02;3.15;;;1.00;;
30000;SDS011;16845;48.670;9.000;2023-04-01T01:45:33;2.50;;;1.17;;
30000;SDS011;16845;48.670;9.000;2023-04-01T01:48:04;1.75;;;0.98;;
30000;SDS011;16845;48.670;9.000;2023-04-01T01:50:36;4.78;;;0.90;;
30000;SDS011;16845;48.670;9.000;2023-04-01T01:53:07;2.47;;;1.65;;
30000;SDS011;16845;48.670;9.000;2023-04-01T01:55:37;3.92;;;1.05;;
30000;SDS011;16845;48.670;9.000;2023-04-01T01:58:08;7.93;;;1.13;;
30000;SDS011;16845;48.670;9.000;2023-04-01T02:00:41;4.20;;;1.00;;
30000;SDS011;16845;48.670;9.000;2023-04-01T02:03:13;3.08;;;0.70;;
30000;SDS011;16845;48.670;9.000;2023-04-01T02:05:43;6.35;;;1.67;;
30000;SDS011;16845;48.670;9.000;2023-04-01T02:08:12;2.15;;;0.70;;
30000;SDS011;16845;48.670;9.000;2023-04-01T02:10:45;3.50;;;0.80;;
30000;SDS011;16845;48.670;9.000;2023-04-01T02:13:18;2.58;;;0.70;;
30000;SDS011;16845;48.670;9.000;2023-04-01T02:15:54;1.95;;;0.90;;
30000;SDS011;16845;48.670;9.000;2023-04-01T02:18:27;7.25;;;0.95;;
30000;SDS011;16845;48.670;9.000;2023-04-01T02:20:58;1.60;;;0.60;;
30000;SDS011;16845;48.670;9.000;2023-04-01T02:23:27;2.83;;;0.60;;
30000;SDS011;16845;48.670;9.000;2023-04-01T02:25:55;1.83;;;0.63;;
30000;SDS011;16845;48.670;9.000;2023-04-01T02:28:23;2.15;;;0.77;;
30000;SDS011;16845;48.670;9.000;2023-04-01T02:30:52;1.90;;;0.60;;
30000;SDS011;16845;48.670;9.000;2023-04-01T02:33:20;2.10;;;0.60;;
30000;SDS011;16845;48.670;9.000;2023-04-01T02:35:49;0.43;;;0.40;;
30000;SDS011;16845;48.670;9.000;2023-04-01T02:38:19;1.25;;;0.63;;
30000;SDS011;16845;48.670;9.000;2023-04-01T02:40:48;2.35;;;0.70;;
30000;SDS011;16845;48.670;9.000;2023-04-01T02:43:17;4.25;;;0.52;;
30000;SDS011;16845;48.670;9.000;2023-04-01T02:45:46;1.02;;;0.63;;
30000;SDS011;16845;48.670;9.000;2023-04-01T02:48:13;3.28;;;0.52;;
30000;SDS011;16845;48.670;9.000;2023-04-01T02:50:41;1.85;;;0.60;;
30000;SDS011;16845;48.670;9.000;2023-04-01T02:53:09;3.00;;;0.35;;
30000;SDS011;16845;48.670;9.000;2023-04-01T02:55:39;0.50;;;0.40;;
30000;SDS011;16845;48.670;9.000;2023-04-01T02:58:07;1.05;;;0.50;;
30000;SDS011;16845;48.670;9.000;2023-04-01T03:00:35;3.25;;;0.88;;
30000;SDS011;16845;48.670;9.000;2023-04-01T03:03:03;2.00;;;0.63;;
30000;SDS011;16845;48.670;9.000;2023-04-01T03:05:31;1.38;;;0.65;;
30000;SDS011;16845;48.670;9.000;2023-04-01T03:08:00;2.03;;;0.80;;
30000;SDS011;16845;48.670;9.000;2023-04-01T03:10:28;2.13;;;0.50;;
30000;SDS011;16845;48.670;9.000;2023-04-01T03:12:57;1.85;;;0.50;;
30000;SDS011;16845;48.670;9.000;2023-04-01T03:15:25;1.17;;;0.70;;
30000;SDS011;16845;48.670;9.000;2023-04-01T03:17:53;1.08;;;0.47;;
30000;SDS011;16845;48.670;9.000;2023-04-01T03:20:21;1.92;;;0.60;;
30000;SDS011;16845;48.670;9.000;2023-04-01T03:22:49;1.38;;;0.60;;
30000;SDS011;16845;48.670;9.000;2023-04-01T03:25:17;1.90;;;0.70;;
30000;SDS011;16845;48.670;9.000;2023-04-01T03:27:45;2.50;;;0.68;;
30000;SDS011;16845;48.670;9.000;2023-04-01T03:30:14;3.13;;;0.50;;
30000;SDS011;16845;48.670;9.000;2023-04-01T03:32:43;2.47;;;0.60;;
30000;SDS011;16845;48.670;9.000;2023-04-01T03:35:11;1.48;;;0.70;;
30000;SDS011;16845;48.670;9.000;2023-04-01T03:37:39;1.33;;;0.75;;
30000;SDS011;16845;48.670;9.000;2023-04-01T03:40:07;3.47;;;0.70;;
30000;SDS011;16845;48.670;9.000;2023-04-01T03:42:36;1.00;;;0.65;;
30000;SDS011;16845;48.670;9.000;2023-04-01T03:45:04;2.15;;;0.60;;
30000;SDS011;16845;48.670;9.000;2023-04-01T03:47:34;1.67;;;0.63;;
30000;SDS011;16845;48.670;9.000;2023-04-01T03:50:02;0.65;;;0.57;;
30000;SDS011;16845;48.670;9.000;2023-04-01T03:52:30;2.20;;;0.73;;
30000;SDS011;16845;48.670;9.000;2023-04-01T03:54:58;3.80;;;0.60;;
30000;SDS011;16845;48.670;9.000;2023-04-01T03:57:26;2.70;;;1.05;;
30000;SDS011;16845;48.670;9.000;2023-04-01T03:59:55;4.32;;;0.77;;
30000;SDS011;16845;48.670;9.000;2023-04-01T04:02:22;1.02;;;0.57;;
30000;SDS011;16845;48.670;9.000;2023-04-01T04:04:52;1.58;;;0.68;;
30000;SDS011;16845;48.670;9.000;2023-04-01T04:07:20;0.50;;;0.50;;
30000;SDS011;16845;48.670;9.000;2023-04-01T04:09:47;1.42;;;0.98;;
30000;SDS011;16845;48.670;9.000;2023-04-01T04:12:15;1.13;;;0.70;;
30000;SDS011;16845;48.670;9.000;2023-04-01T04:14:43;0.55;;;0.55;;
30000;SDS011;16845;48.670;9.000;2023-04-01T04:17:11;0.50;;;0.50;;
30000;SDS011;16845;48.670;9.000;2023-04-01T04:19:42;0.70;;;0.70;;
30000;SDS011;16845;48.670;9.000;2023-04-01T04:22:12;3.30;;;0.90;;
30000;SDS011;16845;48.670;9.000;2023-04-01T04:24:40;0.52;;;0.50;;
30000;SDS011;16845;48.670;9.000;2023-04-01T04:27:07;3.75;;;1.00;;
30000;SDS011;16845;48.670;9.000;2023-04-01T04:29:35;4.47;;;1.77;;
30000;SDS011;16845;48.670;9.000;2023-04-01T04:32:03;2.28;;;0.90;;
30000;SDS011;16845;48.670;9.000;2023-04-01T04:34:32;4.55;;;0.85;;
30000;SDS011;16845;48.670;9.000;2023-04-01T04:37:00;1.58;;;0.75;;
30000;SDS011;16845;48.670;9.000;2023-04-01T04:39:29;0.60;;;0.50;;
30000;SDS011;16845;48.670;9.000;2023-04-01T04:41:57;4.78;;;0.82;;
30000;SDS011;16845;48.670;9.000;2023-04-01T04:44:25;3.30;;;0.95;;
30000;SDS011;16845;48.670;9.000;2023-04-01T04:46:53;4.55;;;1.05;;
30000;SDS011;16845;48.670;9.000;2023-04-01T04:49:23;4.43;;;0.95;;
30000;SDS011;16845;48.670;9.000;2023-04-01T04:51:52;1.75;;;1.08;;
30000;SDS011;16845;48.670;9.000;2023-04-01T04:54:20;2.90;;;1.80;;
30000;SDS011;16845;48.670;9.000;2023-04-01T04:56:50;4.70;;;1.00;;
30000;SDS011;16845;48.670;9.000;2023-04-01T04:59:19;4.85;;;1.30;;
30000;SDS011;16845;48.670;9.000;2023-04-01T05:01:47;3.40;;;0.90;;
30000;SDS011;16845;48.670;9.000;2023-04-01T05:04:15;7.55;;;1.98;;
30000;SDS011;16845;48.670;9.000;2023-04-01T05:06:43;4.43;;;0.75;;
30000;SDS011;16845;48.670;9.000;2023-04-01T05:09:11;7.00;;;1.20;;
30000;SDS011;16845;48.670;9.000;2023-04-01T05:11:39;3.85;;;0.93;;
30000;SDS011;16845;48.670;9.000;2023-04-01T05:14:12;5.13;;;1.25;;
30000;SDS011;16845;48.670;9.000;2023-04-01T05:16:41;2.72;;;1.20;;
30000;SDS011;16845;48.670;9.000;2023-04-01T05:19:09;4.82;;;1.00;;
30000;SDS011;16845;48.670;9.000;2023-04-01T05:21:37;3.97;;;1.33;;
30000;SDS011;16845;48.670;9.000;2023-04-01T05:24:07;7.05;;;1.70;;
30000;SDS011;16845;48.670;9.000;2023-04-01T05:26:35;5.13;;;1.10;;
30000;SDS011;16845;48.670;9.000;2023-04-01T05:29:03;2.22;;;0.82;;
30000;SDS011;16845;48.670;9.000;2023-04-01T05:31:32;2.22;;;1.00;;
30000;SDS011;16845;48.670;9.000;2023-04-01T05:34:00;2.05;;;0.75;;
30000;SDS011;16845;48.670;9.000;2023-04-01T05:36:28;3.13;;;0.73;;
30000;SDS011;16845;48.670;9.000;2023-04-01T05:38:56;3.28;;;1.00;;
30000;SDS011;16845;48.670;9.000;2023-04-01T05:41:24;3.67;;;0.90;;
30000;SDS011;16845;48.670;9.000;2023-04-01T05:43:52;4.40;;;1.08;;
30000;SDS011;16845;48.670;9.000;2023-04-01T05:46:20;7.22;;;0.90;;
30000;SDS011;16845;48.670;9.000;2023-04-01T05:48:49;7.88;;;1.65;;
30000;SDS011;16845;48.670;9.000;2023-04-01T05:51:17;2.83;;;1.02;;
30000;SDS011;16845;48.670;9.000;2023-04-01T05:53:45;4.63;;;1.10;;
30000;SDS011;16845;48.670;9.000;2023-04-01T05:56:13;8.57;;;1.05;;
30000;SDS011;16845;48.670;9.000;2023-04-01T05:58:41;3.90;;;1.10;;
30000;SDS011;16845;48.670;9.000;2023-04-01T06:01:10;4.82;;;1.30;;
30000;SDS011;16845;48.670;9.000;2023-04-01T06:03:41;2.72;;;0.90;;
30000;SDS011;16845;48.670;9.000;2023-04-01T06:06:12;1.55;;;0.70;;
30000;SDS011;16845;48.670;9.000;2023-04-01T06:08:42;4.20;;;0.77;;
30000;SDS011;16845;48.670;9.000;2023-04-01T06:11:13;2.25;;;0.63;;
30000;SDS011;16845;48.670;9.000;2023-04-01T06:13:59;2.47;;;1.10;;
30000;SDS011;16845;48.670;9.000;2023-04-01T06:16:39;4.93;;;1.40;;
30000;SDS011;16845;48.670;9.000;2023-04-01T06:19:22;3.97;;;1.27;;
30000;SDS011;16845;48.670;9.000;2023-04-01T06:22:02;1.35;;;0.70;;
30000;SDS011;16845;48.670;9.000;2023-04-01T06:24:44;5.05;;;1.20;;
30000;SDS011;16845;48.670;9.000;2023-04-01T06:27:39;4.15;;;1.33;;
30000;SDS011;16845;48.670;9.000;2023-04-01T06:30:30;0.75;;;0.60;;
30000;SDS011;16845;48.670;9.000;2023-04-01T06:33:09;3.97;;;0.70;;
30000;SDS011;16845;48.670;9.000;2023-04-01T06:36:02;2.47;;;0.85;;
30000;SDS011;16845;48.670;9.000;2023-04-01T06:39:00;3.80;;;0.95;;
30000;SDS011;16845;48.670;9.000;2023-04-01T06:41:44;1.42;;;0.85;;
30000;SDS011;16845;48.670;9.000;2023-04-01T06:44:27;2.88;;;0.90;;
30000;SDS011;16845;48.670;9.000;2023-04-01T06:47:04;2.20;;;0.90;;
30000;SDS011;16845;48.670;9.000;2023-04-01T06:49:44;2.22;;;0.82;;
30000;SDS011;16845;48.670;9.000;2023-04-01T06:52:19;4.70;;;0.90;;
30000;SDS011;16845;48.670;9.000;2023-04-01T06:54:55;4.20;;;2.08;;
30000;SDS011;16845;48.670;9.000;2023-04-01T06:57:29;2.58;;;1.08;;
30000;SDS011;16845;48.670;9.000;2023-04-01T07:00:03;3.35;;;0.65;;
30000;SDS011;16845;48.670;9.000;2023-04-01T07:02:41;4.45;;;0.90;;
30000;SDS011;16845;48.670;9.000;2023-04-01T07:05:13;2.22;;;0.90;;
30000;SDS011;16845;48.670;9.000;2023-04-01T07:07:43;2.03;;;0.63;;
30000;SDS011;16845;48.670;9.000;2023-04-01T07:10:16;5.88;;;1.17;;
30000;SDS011;16845;48.670;9.000;2023-04-01T07:12:48;4.22;;;0.80;;
30000;SDS011;16845;48.670;9.000;2023-04-01T07:15:20;1.88;;;1.10;;
30000;SDS011;16845;48.670;9.000;2023-04-01T07:17:52;5.40;;;1.00;;
30000;SDS011;16845;48.670;9.000;2023-04-01T07:20:23;2.67;;;0.80;;
30000;SDS011;16845;48.670;9.000;2023-04-01T07:22:56;1.08;;;0.80;;
30000;SDS011;16845;48.670;9.000;2023-04-01T07:25:27;1.65;;;0.90;;
30000;SDS011;16845;48.670;9.000;2023-04-01T07:28:00;1.83;;;0.98;;
30000;SDS011;16845;48.670;9.000;2023-04-01T07:30:33;1.73;;;0.68;;
30000;SDS011;16845;48.670;9.000;2023-04-01T07:33:11;3.13;;;0.85;;
30000;SDS011;16845;48.670;9.000;2023-04-01T07:35:45;1.23;;;0.80;;
30000;SDS011;16845;48.670;9.000;2023-04-01T07:38:20;3.10;;;0.75;;
30000;SDS011;16845;48.670;9.000;2023-04-01T07:40:58;2.20;;;0.80;;
30000;SDS011;16845;48.670;9.000;2023-04-01T07:43:40;3.65;;;1.00;;
30000;SDS011;16845;48.670;9.000;2023-04-01T07:46:16;2.28;;;0.80;;
30000;SDS011;16845;48.670;9.000;2023-04-01T07:51:24;6.63;;;0.90;;
30000;SDS011;16845;48.670;9.000;2023-04-01T07:53:58;4.22;;;1.63;;
30000;SDS011;16845;48.670;9.000;2023-04-01T07:56:36;3.65;;;1.00;;
30000;SDS011;16845;48.670;9.000;2023-04-01T07:59:10;1.98;;;1.17;;
30000;SDS011;16845;48.670;9.000;2023-04-01T08:01:45;2.28;;;0.90;;
30000;SDS011;16845;48.670;9.000;2023-04-01T08:04:20;6.28;;;1.02;;
30000;SDS011;16845;48.670;9.000;2023-04-01T08:06:57;1.95;;;1.42;;
30000;SDS011;16845;48.670;9.000;2023-04-01T08:09:35;2.35;;;0.70;;
30000;SDS011;16845;48.670;9.000;2023-04-01T08:12:15;4.75;;;1.33;;
30000;SDS011;16845;48.670;9.000;2023-04-01T08:14:56;2.47;;;0.90;;
30000;SDS011;16845;48.670;9.000;2023-04-01T08:17:31;5.05;;;0.90;;
30000;SDS011;16845;48.670;9.000;2023-04-01T08:20:14;4.78;;;0.90;;
30000;SDS011;16845;48.670;9.000;2023-04-01T08:22:53;5.43;;;1.02;;
30000;SDS011;16845;48.670;9.000;2023-04-01T08:25:28;0.93;;;0.52;;
30000;SDS011;16845;48.670;9.000;2023-04-01T08:28:00;1.38;;;1.13;;
30000;SDS011;16845;48.670;9.000;2023-04-01T08:30:37;5.13;;;0.85;;
30000;SDS011;16845;48.670;9.000;2023-04-01T08:33:11;2.80;;;0.90;;
30000;SDS011;16845;48.670;9.000;2023-04-01T08:35:43;6.43;;;0.82;;
30000;SDS011;16845;48.670;9.000;2023-04-01T08:38:17;4.20;;;1.42;;
30000;SDS011;16845;48.670;9.000;2023-04-01T08:40:55;4.25;;;1.00;;
30000;SDS011;16845;48.670;9.000;2023-04-01T08:43:30;3.70;;;1.33;;
30000;SDS011;16845;48.670;9.000;2023-04-01T08:49:36;2.08;;;0.80;;
30000;SDS011;16845;48.670;9.000;2023-04-01T08:52:33;4.15;;;1.27;;
30000;SDS011;16845;48.670;9.000;2023-04-01T08:55:18;1.52;;;0.70;;
30000;SDS011;16845;48.670;9.000;2023-04-01T08:58:13;4.80;;;1.50;;
30000;SDS011;16845;48.670;9.000;2023-04-01T09:01:03;1.65;;;0.80;;
30000;SDS011;16845;48.670;9.000;2023-04-01T09:03:43;3.42;;;0.73;;
30000;SDS011;16845;48.670;9.000;2023-04-01T09:06:33;3.88;;;0.90;;
30000;SDS011;16845;48.670;9.000;2023-04-01T09:15:16;6.40;;;1.38;;
30000;SDS011;16845;48.670;9.000;2023-04-01T09:18:11;1.60;;;0.52;;
30000;SDS011;16845;48.670;9.000;2023-04-01T09:24:09;0.85;;;0.50;;
30000;SDS011;16845;48.670;9.000;2023-04-01T09:27:05;6.88;;;0.60;;
30000;SDS011;16845;48.670;9.000;2023-04-01T09:29:47;0.50;;;0.50;;
30000;SDS011;16845;48.670;9.000;2023-04-01T09:35:28;1.90;;;0.57;;
30000;SDS011;16845;48.670;9.000;2023-04-01T09:38:12;0.35;;;0.30;;
30000;SDS011;16845;48.670;9.000;2023-04-01T09:40:52;0.75;;;0.30;;
30000;SDS011;16845;48.670;9.000;2023-04-01T09:43:27;3.05;;;0.73;;
30000;SDS011;16845;48.670;9.000;2023-04-01T09:46:00;0.40;;;0.40;;
30000;SDS011;16845;48.670;9.000;2023-04-01T09:51:46;1.67;;;0.50;;
30000;SDS011;16845;48.670;9.000;2023-04-01T09:54:24;1.05;;;0.50;;
30000;SDS011;16845;48.670;9.000;2023-04-01T10:03:10;0.68;;;0.60;;
30000;SDS011;16845;48.670;9.000;2023-04-01T10:06:20;0.68;;;0.40;;
30000;SDS011;16845;48.670;9.000;2023-04-01T10:24:46;3.88;;;0.63;;
30000;SDS011;16845;48.670;9.000;2023-04-01T10:27:47;2.13;;;0.40;;
30000;SDS011;16845;48.670;9.000;2023-04-01T10:36:53;1.65;;;0.30;;
30000;SDS011;16845;48.670;9.000;2023-04-01T10:42:34;0.40;;;0.40;;
30000;SDS011;16845;48.670;9.000;2023-04-01T10:45:32;0.88;;;0.40;;
30000;SDS011;16845;48.670;9.000;2023-04-01T10:48:25;0.28;;;0.28;;
30000;SDS011;16845;48.670;9.000;2023-04-01T10:51:38;0.20;;;0.20;;
30000;SDS011;16845;48.670;9.000;2023-04-01T10:54:40;0.30;;;0.30;;
30000;SDS011;16845;48.670;9.000;2023-04-01T10:57:19;0.30;;;0.30;;
30000;SDS011;16845;48.670;9.000;2023-04-01T11:00:32;0.95;;;0.40;;
30000;SDS011;16845;48.670;9.000;2023-04-01T11:03:36;2.35;;;0.45;;
30000;SDS011;16845;48.670;9.000;2023-04-01T11:09:30;0.30;;;0.30;;
30000;SDS011;16845;48.670;9.000;2023-04-01T11:15:39;0.30;;;0.30;;
30000;SDS011;16845;48.670;9.000;2023-04-01T11:27:20;0.20;;;0.20;;
30000;SDS011;16845;48.670;9.000;2023-04-01T11:32:43;0.22;;;0.22;;
30000;SDS011;16845;48.670;9.000;2023-04-01T11:38:30;0.32;;;0.30;;
30000;SDS011;16845;48.670;9.000;2023-04-01T11:41:13;0.20;;;0.20;;
30000;SDS011;16845;48.670;9.000;2023-04-01T11:43:53;0.30;;;0.30;;
30000;SDS011;16845;48.670;9.000;2023-04-01T11:46:33;0.20;;;0.20;;
30000;SDS011;16845;48.670;9.000;2023-04-01T11:49:17;0.32;;;0.30;;
30000;SDS011;16845;48.670;9.000;2023-04-01T11:52:02;0.30;;;0.30;;
30000;SDS011;16845;48.670;9.000;2023-04-01T11:54:51;0.20;;;0.20;;
30000;SDS011;16845;48.670;9.000;2023-04-01T11:57:42;0.30;;;0.30;;
30000;SDS011;16845;48.670;9.000;2023-04-01T12:00:23;1.55;;;0.40;;
30000;SDS011;16845;48.670;9.000;2023-04-01T12:03:18;0.30;;;0.30;;
30000;SDS011;16845;48.670;9.000;2023-04-01T12:06:01;2.05;;;0.30;;
30000;SDS011;16845;48.670;9.000;2023-04-01T12:08:38;0.57;;;0.30;;
30000;SDS011;16845;48.670;9.000;2023-04-01T12:13:47;0.73;;;0.30;;
30000;SDS011;16845;48.670;9.000;2023-04-01T12:16:36;0.35;;;0.35;;
30000;SDS011;16845;48.670;9.000;2023-04-01T12:19:17;0.40;;;0.40;;
30000;SDS011;16845;48.670;9.000;2023-04-01T12:21:57;0.63;;;0.30;;
30000;SDS011;16845;48.670;9.000;2023-04-01T12:36:35;0.70;;;0.70;;
30000;SDS011;16845;48.670;9.000;2023-04-01T12:39:27;4.30;;;1.08;;
30000;SDS011;16845;48.670;9.000;2023-04-01T12:42:18;0.52;;;0.50;;
30000;SDS011;16845;48.670;9.000;2023-04-01T12:45:07;0.30;;;0.30;;
30000;SDS011;16845;48.670;9.000;2023-04-01T12:48:02;0.22;;;0.22;;
30000;SDS011;16845;48.670;9.000;2023-04-01T12:51:01;0.30;;;0.30;;
30000;SDS011;16845;48.670;9.000;2023-04-01T12:53:56;0.30;;;0.30;;
30000;SDS011;16845;48.670;9.000;2023-04-01T12:56:42;0.25;;;0.25;;
30000;SDS011;16845;48.670;9.000;2023-04-01T12:59:27;0.57;;;0.30;;
30000;SDS011;16845;48.670;9.000;2023-04-01T13:02:11;0.20;;;0.20;;
30000;SDS011;16845;48.670;9.000;2023-04-01T13:05:01;0.32;;;0.32;;
30000;SDS011;16845;48.670;9.000;2023-04-01T13:07:59;0.30;;;0.30;;
30000;SDS011;16845;48.670;9.000;2023-04-01T13:10:47;0.30;;;0.30;;
30000;SDS011;16845;48.670;9.000;2023-04-01T13:13:42;0.38;;;0.30;;
30000;SDS011;16845;48.670;9.000;2023-04-01T13:16:57;0.20;;;0.20;;
30000;SDS011;16845;48.670;9.000;2023-04-01T13:19:31;0.85;;;0.30;;
30000;SDS011;16845;48.670;9.000;2023-04-01T13:22:05;0.35;;;0.30;;
30000;SDS011;16845;48.670;9.000;2023-04-01T13:24:40;0.30;;;0.30;;
30000;SDS011;16845;48.670;9.000;2023-04-01T13:27:16;0.40;;;0.40;;
30000;SDS011;16845;48.670;9.000;2023-04-01T13:29:54;0.40;;;0.40;;
30000;SDS011;16845;48.670;9.000;2023-04-01T13:32:30;0.50;;;0.50;;
30000;SDS011;16845;48.670;9.000;2023-04-01T13:35:18;0.82;;;0.50;;
30000;SDS011;16845;48.670;9.000;2023-04-01T13:38:03;0.30;;;0.30;;
30000;SDS011;16845;48.670;9.000;2023-04-01T13:40:43;0.38;;;0.38;;
30000;SDS011;16845;48.670;9.000;2023-04-01T13:43:30;0.80;;;0.40;;
30000;SDS011;16845;48.670;9.000;2023-04-01T13:46:13;1.27;;;0.40;;
30000;SDS011;16845;48.670;9.000;2023-04-01T13:49:03;0.40;;;0.40;;
30000;SDS011;16845;48.670;9.000;2023-04-01T13:51:52;0.65;;;0.43;;
30000;SDS011;16845;48.670;9.000;2023-04-01T13:54:42;0.47;;;0.40;;
30000;SDS011;16845;48.670;9.000;2023-04-01T13:57:23;0.30;;;0.30;;
30000;SDS011;16845;48.670;9.000;2023-04-01T14:00:23;0.80;;;0.63;;
30000;SDS011;16845;48.670;9.000;2023-04-01T14:03:08;0.32;;;0.32;;
30000;SDS011;16845;48.670;9.000;2023-04-01T14:05:54;0.60;;;0.60;;
30000;SDS011;16845;48.670;9.000;2023-04-01T14:08:47;0.30;;;0.30;;
30000;SDS011;16845;48.670;9.000;2023-04-01T14:11:39;1.75;;;0.50;;
30000;SDS011;16845;48.670;9.000;2023-04-01T14:14:15;0.38;;;0.38;;
30000;SDS011;16845;48.670;9.000;2023-04-01T14:16:54;0.40;;;0.40;;
30000;SDS011;16845;48.670;9.000;2023-04-01T14:22:20;0.50;;;0.50;;
30000;SDS011;16845;48.670;9.000;2023-04-01T14:25:00;1.08;;;0.90;;
30000;SDS011;16845;48.670;9.000;2023-04-01T14:27:47;0.85;;;0.50;;
30000;SDS011;16845;48.670;9.000;2023-04-01T14:30:34;0.32;;;0.32;;
30000;SDS011;16845;48.670;9.000;2023-04-01T14:33:15;0.55;;;0.50;;
30000;SDS011;16845;48.670;9.000;2023-04-01T14:35:55;0.30;;;0.30;;
30000;SDS011;16845;48.670;9.000;2023-04-01T14:38:39;0.40;;;0.40;;
30000;SDS011;16845;48.670;9.000;2023-04-01T14:41:19;0.50;;;0.50;;
30000;SDS011;16845;48.670;9.000;2023-04-01T14:44:04;0.30;;;0.30;;
30000;SDS011;16845;48.670;9.000;2023-04-01T14:49:51;0.60;;;0.43;;
30000;SDS011;16845;48.670;9.000;2023-04-01T14:52:23;0.40;;;0.40;;
30000;SDS011;16845;48.670;9.000;2023-04-01T14:54:54;0.30;;;0.30;;
30000;SDS011;16845;48.670;9.000;2023-04-01T14:57:25;0.40;;;0.40;;
30000;SDS011;16845;48.670;9.000;2023-04-01T14:59:59;0.88;;;0.70;;
30000;SDS011;16845;48.670;9.000;2023-04-01T15:02:33;0.30;;;0.30;;
30000;SDS011;16845;48.670;9.000;2023-04-01T15:05:13;0.40;;;0.40;;
30000;SDS011;16845;48.670;9.000;2023-04-01T15:10:42;0.38;;;0.32;;
30000;SDS011;16845;48.670;9.000;2023-04-01T15:13:24;1.02;;;0.60;;
30000;SDS011;16845;48.670;9.000;2023-04-01T15:16:06;0.55;;;0.40;;
30000;SDS011;16845;48.670;9.000;2023-04-01T15:18:44;0.40;;;0.40;;
30000;SDS011;16845;48.670;9.000;2023-04-01T15:21:28;2.38;;;0.70;;
30000;SDS011;16845;48.670;9.000;2023-04-01T15:24:13;1.65;;;0.50;;
30000;SDS011;16845;48.670;9.000;2023-04-01T15:26:50;2.45;;;0.52;;
30000;SDS011;16845;48.670;9.000;2023-04-01T15:29:38;2.65;;;0.60;;
30000;SDS011;16845;48.670;9.000;2023-04-01T15:32:29;0.50;;;0.50;;
30000;SDS011;16845;48.670;9.000;2023-04-01T15:35:11;0.60;;;0.60;;
30000;SDS011;16845;48.670;9.000;2023-04-01T15:37:48;1.40;;;0.50;;
30000;SDS011;16845;48.670;9.000;2023-04-01T15:40:22;1.83;;;0.82;;
30000;SDS011;16845;48.670;9.000;2023-04-01T15:42:55;2.67;;;0.80;;
30000;SDS011;16845;48.670;9.000;2023-04-01T15:45:33;2.88;;;0.90;;
30000;SDS011;16845;48.670;9.000;2023-04-01T15:48:13;2.20;;;0.77;;
30000;SDS011;16845;48.670;9.000;2023-04-01T15:51:14;1.70;;;1.00;;
30000;SDS011;16845;48.670;9.000;2023-04-01T15:54:04;1.65;;;1.02;;
30000;SDS011;16845;48.670;9.000;2023-04-01T15:56:49;1.23;;;0.73;;
30000;SDS011;16845;48.670;9.000;2023-04-01T15:59:28;2.08;;;1.13;;
30000;SDS011;16845;48.670;9.000;2023-04-01T16:02:21;0.90;;;0.75;;
30000;SDS011;16845;48.670;9.000;2023-04-01T16:04:58;0.88;;;0.50;;
30000;SDS011;16845;48.670;9.000;2023-04-01T16:07:36;2.00;;;0.60;;
30000;SDS011;16845;48.670;9.000;2023-04-01T16:10:25;0.93;;;0.60;;
30000;SDS011;16845;48.670;9.000;2023-04-01T16:13:15;2.75;;;0.75;;
30000;SDS011;16845;48.670;9.000;2023-04-01T16:15:53;0.90;;;0.65;;
30000;SDS011;16845;48.670;9.000;2023-04-01T16:21:35;1.80;;;0.75;;
30000;SDS011;16845;48.670;9.000;2023-04-01T16:26:43;1.52;;;0.88;;
30000;SDS011;16845;48.670;9.000;2023-04-01T16:29:17;0.70;;;0.63;;
30000;SDS011;16845;48.670;9.000;2023-04-01T16:31:51;2.08;;;0.70;;
30000;SDS011;16845;48.670;9.000;2023-04-01T16:34:24;2.05;;;0.80;;
30000;SDS011;16845;48.670;9.000;2023-04-01T16:37:00;2.88;;;0.77;;
30000;SDS011;16845;48.670;9.000;2023-04-01T16:39:35;1.35;;;0.88;;
30000;SDS011;16845;48.670;9.000;2023-04-01T16:44:46;4.30;;;0.88;;
30000;SDS011;16845;48.670;9.000;2023-04-01T16:47:18;1.95;;;1.13;;
30000;SDS011;16845;48.670;9.000;2023-04-01T16:49:50;3.33;;;0.90;;
30000;SDS011;16845;48.670;9.000;2023-04-01T16:52:34;1.70;;;0.80;;
30000;SDS011;16845;48.670;9.000;2023-04-01T16:55:14;3.00;;;1.10;;
30000;SDS011;16845;48.670;9.000;2023-04-01T16:57:46;2.08;;;0.88;;
30000;SDS011;16845;48.670;9.000;2023-04-01T17:00:22;2.25;;;0.82;;
30000;SDS011;16845;48.670;9.000;2023-04-01T17:02:57;3.78;;;0.88;;
30000;SDS011;16845;48.670;9.000;2023-04-01T17:05:37;1.48;;;0.80;;
30000;SDS011;16845;48.670;9.000;2023-04-01T17:08:10;2.00;;;0.85;;
30000;SDS011;16845;48.670;9.000;2023-04-01T17:13:24;1.27;;;0.63;;
30000;SDS011;16845;48.670;9.000;2023-04-01T17:16:04;2.63;;;1.02;;
30000;SDS011;16845;48.670;9.000;2023-04-01T17:18:46;1.77;;;1.35;;
30000;SDS011;16845;48.670;9.000;2023-04-01T17:21:21;1.17;;;0.85;;
30000;SDS011;16845;48.670;9.000;2023-04-01T17:23:59;2.22;;;1.08;;
30000;SDS011;16845;48.670;9.000;2023-04-01T17:26:35;2.35;;;0.70;;
30000;SDS011;16845;48.670;9.000;2023-04-01T17:29:10;3.13;;;0.80;;
30000;SDS011;16845;48.670;9.000;2023-04-01T17:31:46;1.63;;;1.10;;
30000;SDS011;16845;48.670;9.000;2023-04-01T17:34:26;3.42;;;1.10;;
30000;SDS011;16845;48.670;9.000;2023-04-01T17:37:18;0.98;;;0.68;;